createdAt,value
2022-10-24T00:01:17.614Z,16.95
2022-10-24T00:03:45.188Z,16.95
2022-10-24T00:06:12.845Z,16.94
2022-10-24T00:08:41.162Z,16.94
2022-10-24T00:11:08.731Z,16.94
2022-10-24T00:13:36.427Z,16.92
2022-10-24T00:16:04.033Z,16.92
2022-10-24T00:18:31.895Z,16.91
2022-10-24T00:20:59.761Z,16.94
2022-10-24T00:23:27.334Z,16.95
2022-10-24T00:25:54.878Z,16.96
2022-10-24T00:28:22.515Z,16.96
2022-10-24T00:30:50.103Z,16.94
2022-10-24T00:33:18.033Z,16.96
2022-10-24T00:35:45.651Z,16.94
2022-10-24T00:38:13.221Z,16.90
2022-10-24T00:40:41.058Z,16.88
2022-10-24T00:43:08.687Z,16.86
2022-10-24T00:48:08.899Z,16.87
2022-10-24T00:50:36.477Z,16.88
2022-10-24T00:53:04.043Z,16.90
2022-10-24T00:55:31.628Z,16.89
2022-10-24T00:58:02.083Z,16.88
2022-10-24T01:00:29.690Z,16.86
2022-10-24T01:02:57.549Z,16.86
2022-10-24T01:05:25.118Z,16.86
2022-10-24T01:07:52.671Z,16.89
2022-10-24T01:10:20.880Z,16.88
2022-10-24T01:12:48.502Z,16.88
2022-10-24T01:15:16.033Z,16.87
2022-10-24T01:17:43.582Z,16.91
2022-10-24T01:20:11.170Z,16.99
2022-10-24T01:22:39.323Z,17.07
2022-10-24T01:25:07.174Z,17.15
2022-10-24T01:27:34.735Z,17.23
2022-10-24T01:30:02.300Z,17.30
2022-10-24T01:32:29.856Z,17.35
2022-10-24T01:34:57.748Z,17.38
2022-10-24T01:37:25.284Z,17.38
2022-10-24T01:39:52.894Z,17.35
2022-10-24T01:42:20.463Z,17.31
2022-10-24T01:44:48.017Z,17.32
2022-10-24T01:47:17.169Z,17.32
2022-10-24T01:49:44.758Z,17.33
2022-10-24T01:54:44.818Z,17.35
2022-10-24T01:57:12.388Z,17.36
2022-10-24T01:59:40.555Z,17.38
2022-10-24T02:02:08.101Z,17.39
2022-10-24T02:04:35.702Z,17.38
2022-10-24T02:07:03.261Z,17.38
2022-10-24T02:09:31.120Z,17.35
2022-10-24T02:11:58.924Z,17.30
2022-10-24T02:14:26.474Z,17.31
2022-10-24T02:16:53.999Z,17.31
2022-10-24T02:19:21.568Z,17.29
2022-10-24T02:21:49.147Z,17.29
2022-10-24T02:24:17.268Z,17.25
2022-10-24T02:26:45.309Z,17.21
2022-10-24T02:29:12.869Z,17.19
2022-10-24T02:31:40.718Z,17.20
2022-10-24T02:34:08.356Z,17.18
2022-10-24T02:36:36.165Z,17.18
2022-10-24T02:39:03.781Z,17.22
2022-10-24T02:41:31.339Z,17.23
2022-10-24T02:43:58.885Z,17.21
2022-10-24T02:46:26.428Z,17.23
2022-10-24T02:48:54.353Z,17.25
2022-10-24T02:51:21.896Z,17.34
2022-10-24T02:53:49.716Z,17.39
2022-10-24T02:56:17.269Z,17.44
2022-10-24T02:58:44.788Z,17.48
2022-10-24T03:01:12.753Z,17.52
2022-10-24T03:03:40.377Z,17.53
2022-10-24T03:06:07.901Z,17.51
2022-10-24T03:08:35.411Z,17.49
2022-10-24T03:11:02.985Z,17.48
2022-10-24T03:13:30.861Z,17.47
2022-10-24T03:15:58.705Z,17.49
2022-10-24T03:18:26.257Z,17.50
2022-10-24T03:20:53.761Z,17.51
2022-10-24T03:23:22.082Z,17.51
2022-10-24T03:25:50.008Z,17.50
2022-10-24T03:28:17.547Z,17.52
2022-10-24T03:30:45.062Z,17.50
2022-10-24T03:33:12.683Z,17.51
2022-10-24T03:35:40.228Z,17.49
2022-10-24T03:38:10.185Z,17.49
2022-10-24T03:40:37.837Z,17.45
2022-10-24T03:43:05.398Z,17.44
2022-10-24T03:45:32.971Z,17.42
2022-10-24T03:48:00.645Z,17.43
2022-10-24T03:50:28.487Z,17.42
2022-10-24T03:52:56.028Z,17.39
2022-10-24T03:55:23.617Z,17.39
2022-10-24T03:57:51.139Z,17.37
2022-10-24T04:00:19.686Z,17.36
2022-10-24T04:02:47.329Z,17.34
2022-10-24T04:05:14.878Z,17.34
2022-10-24T04:07:42.751Z,17.34
2022-10-24T04:10:10.645Z,17.32
2022-10-24T04:12:38.214Z,17.29
2022-10-24T04:15:06.088Z,17.27
2022-10-24T04:17:33.682Z,17.25
2022-10-24T04:20:01.249Z,17.19
2022-10-24T04:22:29.081Z,17.20
2022-10-24T04:24:56.676Z,17.18
2022-10-24T04:27:24.791Z,17.17
2022-10-24T04:29:52.332Z,17.19
2022-10-24T04:32:19.922Z,17.19
2022-10-24T04:34:47.555Z,17.18
2022-10-24T04:37:15.115Z,17.19
2022-10-24T04:39:43.283Z,17.20
2022-10-24T04:42:10.887Z,17.21
2022-10-24T04:44:38.720Z,17.21
2022-10-24T04:47:06.323Z,17.19
2022-10-24T04:49:33.891Z,17.20
2022-10-24T04:52:01.864Z,17.23
2022-10-24T04:54:29.481Z,17.21
2022-10-24T04:56:57.090Z,17.22
2022-10-24T04:59:24.628Z,17.24
2022-10-24T05:01:52.415Z,17.25
2022-10-24T05:04:20.670Z,17.26
2022-10-24T05:06:48.590Z,17.27
2022-10-24T05:09:16.174Z,17.26
2022-10-24T05:11:43.745Z,17.27
2022-10-24T05:14:11.329Z,17.28
2022-10-24T05:16:40.199Z,17.27
2022-10-24T05:19:07.838Z,17.26
2022-10-24T05:21:35.401Z,17.24
2022-10-24T05:24:02.996Z,17.23
2022-10-24T05:26:30.565Z,17.20
2022-10-24T05:28:58.775Z,17.19
2022-10-24T05:31:26.467Z,17.16
2022-10-24T05:33:54.102Z,17.16
2022-10-24T05:36:21.685Z,17.16
2022-10-24T05:38:49.301Z,17.15
2022-10-24T05:41:17.321Z,17.15
2022-10-24T05:43:44.907Z,17.17
2022-10-24T05:46:12.562Z,17.18
2022-10-24T05:48:42.073Z,17.17
2022-10-24T05:51:09.961Z,17.17
2022-10-24T05:53:37.896Z,17.16
2022-10-24T05:56:06.184Z,17.18
2022-10-24T05:58:33.744Z,17.20
2022-10-24T06:01:01.456Z,17.18
2022-10-24T06:03:29.100Z,17.14
2022-10-24T06:05:57.400Z,17.13
2022-10-24T06:08:25.079Z,17.14
2022-10-24T06:10:53.759Z,17.15
2022-10-24T06:13:21.644Z,17.13
2022-10-24T06:15:49.317Z,17.12
2022-10-24T06:18:17.467Z,17.12
2022-10-24T06:20:45.066Z,17.11
2022-10-24T06:23:12.789Z,17.12
2022-10-24T06:25:40.402Z,17.11
2022-10-24T06:30:41.097Z,17.09
2022-10-24T06:33:08.848Z,17.10
2022-10-24T06:35:36.828Z,17.12
2022-10-24T06:38:04.558Z,17.12
2022-10-24T06:40:32.164Z,17.11
2022-10-24T06:43:00.348Z,17.09
2022-10-24T06:45:28.163Z,17.10
2022-10-24T06:47:56.299Z,17.09
2022-10-24T06:50:24.247Z,17.09
2022-10-24T06:52:51.985Z,17.15
2022-10-24T06:55:20.240Z,17.19
2022-10-24T06:57:48.020Z,17.21
2022-10-24T07:00:15.842Z,17.22
2022-10-24T07:02:43.718Z,17.23
2022-10-24T07:05:13.013Z,17.25
2022-10-24T07:07:41.315Z,17.25
2022-10-24T07:10:09.221Z,17.29
2022-10-24T07:12:36.925Z,17.34
2022-10-24T07:15:04.796Z,17.37
2022-10-24T07:17:32.890Z,17.42
2022-10-24T07:20:01.194Z,17.44
2022-10-24T07:22:30.280Z,17.45
2022-10-24T07:25:00.289Z,17.48
2022-10-24T07:27:27.982Z,17.50
2022-10-24T07:29:55.639Z,17.52
2022-10-24T07:32:23.940Z,17.55
2022-10-24T07:34:51.693Z,17.57
2022-10-24T07:37:19.480Z,17.64
2022-10-24T07:39:47.483Z,17.70
2022-10-24T07:42:15.129Z,17.78
2022-10-24T07:44:42.884Z,17.88
2022-10-24T07:47:11.576Z,17.96
2022-10-24T07:49:39.162Z,18.05
2022-10-24T07:52:06.844Z,18.11
2022-10-24T07:54:37.132Z,18.13
2022-10-24T07:57:05.834Z,18.14
2022-10-24T07:59:48.783Z,18.14
2022-10-24T08:02:16.509Z,18.16
2022-10-24T08:04:44.331Z,18.22
2022-10-24T08:07:13.958Z,18.33
2022-10-24T08:09:41.801Z,18.47
2022-10-24T08:12:09.567Z,18.63
2022-10-24T08:14:37.246Z,18.74
2022-10-24T08:17:05.652Z,18.80
2022-10-24T08:19:34.697Z,18.85
2022-10-24T08:22:02.757Z,18.88
2022-10-24T08:24:30.474Z,18.85
2022-10-24T08:26:58.299Z,18.85
2022-10-24T08:29:26.049Z,18.88
2022-10-24T08:31:54.082Z,18.94
2022-10-24T08:34:21.908Z,18.98
2022-10-24T08:36:49.631Z,19.05
2022-10-24T08:39:17.314Z,19.07
2022-10-24T08:41:46.889Z,19.04
2022-10-24T08:44:15.932Z,19.00
2022-10-24T08:46:44.460Z,18.94
2022-10-24T08:49:12.818Z,18.91
2022-10-24T08:51:40.955Z,18.85
2022-10-24T08:54:08.696Z,18.85
2022-10-24T08:56:37.519Z,18.84
2022-10-24T08:59:05.299Z,18.85
2022-10-24T09:01:33.351Z,18.86
2022-10-24T09:04:01.363Z,18.86
2022-10-24T09:06:29.340Z,18.85
2022-10-24T09:08:58.875Z,18.81
2022-10-24T09:11:26.704Z,18.75
2022-10-24T09:13:54.515Z,18.73
2022-10-24T09:16:22.369Z,18.73
2022-10-24T09:18:50.220Z,18.75
2022-10-24T09:21:18.627Z,18.76
2022-10-24T09:23:46.511Z,18.74
2022-10-24T09:26:14.450Z,18.72
2022-10-24T09:28:42.124Z,18.73
2022-10-24T09:31:10.029Z,18.76
2022-10-24T09:33:41.247Z,18.79
2022-10-24T09:36:09.189Z,18.86
2022-10-24T09:38:36.910Z,18.91
2022-10-24T09:41:04.621Z,18.98
2022-10-24T09:43:32.477Z,19.04
2022-10-24T09:46:01.041Z,19.16
2022-10-24T09:48:30.403Z,19.18
2022-10-24T09:50:58.783Z,19.11
2022-10-24T09:53:26.594Z,19.05
2022-10-24T09:55:54.536Z,18.96
2022-10-24T09:58:22.777Z,18.91
2022-10-24T10:00:50.516Z,18.86
2022-10-24T10:03:22.799Z,18.80
2022-10-24T10:05:52.211Z,18.74
2022-10-24T10:08:20.029Z,18.67
2022-10-24T10:10:48.605Z,18.61
2022-10-24T10:13:18.782Z,18.60
2022-10-24T10:15:46.632Z,18.55
2022-10-24T10:18:14.388Z,18.53
2022-10-24T10:20:42.257Z,18.53
2022-10-24T10:23:10.305Z,18.55
2022-10-24T10:25:38.377Z,18.55
2022-10-24T10:28:06.080Z,18.54
2022-10-24T10:30:34.550Z,18.54
2022-10-24T10:33:02.335Z,18.49
2022-10-24T10:35:32.030Z,18.47
2022-10-24T10:37:59.906Z,18.44
2022-10-24T10:40:27.848Z,18.43
2022-10-24T10:42:55.557Z,18.45
2022-10-24T10:45:23.422Z,18.47
2022-10-24T10:47:52.127Z,18.51
2022-10-24T10:50:20.066Z,18.53
2022-10-24T10:52:47.988Z,18.61
2022-10-24T10:55:16.220Z,18.67
2022-10-24T10:57:44.149Z,18.65
2022-10-24T11:00:12.057Z,18.65
2022-10-24T11:02:39.883Z,18.66
2022-10-24T11:05:07.941Z,18.72
2022-10-24T11:07:35.845Z,18.74
2022-10-24T11:10:03.713Z,18.74
2022-10-24T11:12:32.052Z,18.68
2022-10-24T11:14:59.920Z,18.68
2022-10-24T11:17:27.985Z,18.67
2022-10-24T11:19:55.876Z,18.64
2022-10-24T11:22:23.707Z,18.62
2022-10-24T11:24:52.031Z,18.58
2022-10-24T11:27:21.815Z,18.55
2022-10-24T11:29:49.649Z,18.58
2022-10-24T11:32:17.574Z,18.62
2022-10-24T11:34:45.568Z,18.61
2022-10-24T11:37:14.191Z,18.66
2022-10-24T11:39:42.374Z,18.72
2022-10-24T11:42:10.916Z,18.73
2022-10-24T11:44:38.949Z,18.77
2022-10-24T11:47:07.022Z,18.82
2022-10-24T11:49:36.014Z,18.82
2022-10-24T11:52:03.864Z,18.80
2022-10-24T11:54:31.827Z,18.86
2022-10-24T11:56:59.837Z,18.89
2022-10-24T11:59:27.827Z,18.87
2022-10-24T12:01:57.311Z,18.83
2022-10-24T12:04:25.197Z,18.80
2022-10-24T12:06:53.242Z,18.79
2022-10-24T12:09:21.054Z,18.84
2022-10-24T12:11:48.927Z,18.87
2022-10-24T12:14:20.028Z,18.90
2022-10-24T12:16:47.931Z,18.85
2022-10-24T12:19:15.902Z,18.64
2022-10-24T12:21:43.733Z,18.10
2022-10-24T12:24:11.744Z,17.78
2022-10-24T12:26:40.592Z,17.70
2022-10-24T12:29:08.591Z,17.70
2022-10-24T12:31:37.401Z,17.80
2022-10-24T12:34:05.254Z,17.93
2022-10-24T12:36:33.219Z,18.05
2022-10-24T12:39:01.786Z,18.14
2022-10-24T12:41:29.636Z,18.25
2022-10-24T12:43:57.476Z,18.42
2022-10-24T12:46:25.489Z,18.55
2022-10-24T12:48:53.301Z,18.63
2022-10-24T12:51:21.796Z,18.70
2022-10-24T12:53:49.523Z,18.74
2022-10-24T12:58:50.145Z,18.92
2022-10-24T13:01:17.833Z,19.00
2022-10-24T13:03:46.497Z,19.04
2022-10-24T13:06:14.267Z,18.98
2022-10-24T13:08:42.444Z,18.84
2022-10-24T13:11:10.327Z,18.24
2022-10-24T13:13:38.244Z,17.29
2022-10-24T13:16:06.956Z,16.74
2022-10-24T13:18:34.818Z,16.40
2022-10-24T13:21:02.623Z,16.16
2022-10-24T13:23:30.633Z,16.02
2022-10-24T13:25:58.477Z,15.94
2022-10-24T13:28:28.112Z,15.92
2022-10-24T13:30:55.899Z,16.03
2022-10-24T13:33:23.579Z,16.16
2022-10-24T13:35:51.551Z,16.27
2022-10-24T13:38:19.270Z,16.38
2022-10-24T13:40:47.712Z,16.53
2022-10-24T13:43:15.605Z,16.67
2022-10-24T13:45:43.511Z,16.77
2022-10-24T13:48:15.694Z,16.84
2022-10-24T13:50:44.214Z,16.90
2022-10-24T13:53:13.801Z,16.95
2022-10-24T13:55:41.615Z,17.02
2022-10-24T13:58:09.469Z,17.07
2022-10-24T14:00:37.368Z,17.19
2022-10-24T14:03:05.136Z,17.47
2022-10-24T14:05:33.199Z,17.64
2022-10-24T14:08:00.962Z,18.00
2022-10-24T14:10:28.721Z,18.36
2022-10-24T14:12:57.936Z,18.56
2022-10-24T14:15:25.997Z,18.70
2022-10-24T14:17:54.650Z,18.67
2022-10-24T14:20:22.636Z,18.61
2022-10-24T14:22:50.418Z,18.54
2022-10-24T14:25:23.145Z,18.77
2022-10-24T14:27:51.715Z,19.21
2022-10-24T14:30:20.427Z,19.28
2022-10-24T14:32:48.196Z,19.06
2022-10-24T14:35:16.041Z,18.76
2022-10-24T14:37:45.786Z,18.49
2022-10-24T14:40:13.842Z,18.28
2022-10-24T14:42:42.244Z,18.11
2022-10-24T14:45:10.101Z,17.96
2022-10-24T14:47:39.096Z,17.86
2022-10-24T14:50:06.885Z,17.79
2022-10-24T14:52:37.216Z,17.75
2022-10-24T14:55:05.564Z,17.73
2022-10-24T14:57:33.416Z,17.68
2022-10-24T15:00:02.931Z,17.66
2022-10-24T15:02:30.881Z,17.61
2022-10-24T15:04:58.738Z,17.58
2022-10-24T15:07:27.371Z,17.54
2022-10-24T15:09:55.267Z,17.49
2022-10-24T15:12:23.099Z,17.46
2022-10-24T15:14:53.603Z,17.46
2022-10-24T15:17:21.389Z,17.46
2022-10-24T15:19:50.106Z,17.47
2022-10-24T15:22:18.177Z,17.47
2022-10-24T15:24:46.101Z,17.46
2022-10-24T15:27:14.053Z,17.48
2022-10-24T15:29:41.917Z,17.48
2022-10-24T15:32:10.171Z,17.48
2022-10-24T15:34:38.076Z,17.44
2022-10-24T15:37:07.948Z,17.38
2022-10-24T15:39:35.775Z,17.32
2022-10-24T15:44:38.036Z,17.22
2022-10-24T15:47:06.036Z,17.17
2022-10-24T15:49:33.812Z,17.14
2022-10-24T15:52:01.550Z,17.08
2022-10-24T15:54:29.556Z,17.03
2022-10-24T15:57:00.381Z,17.00
2022-10-24T15:59:31.011Z,16.98
2022-10-24T16:02:00.385Z,16.95
2022-10-24T16:04:28.300Z,16.93
2022-10-24T16:06:56.799Z,16.91
2022-10-24T16:09:25.771Z,16.88
2022-10-24T16:11:53.537Z,16.88
2022-10-24T16:14:21.436Z,16.88
2022-10-24T16:16:49.401Z,16.87
2022-10-24T16:19:17.209Z,16.87
2022-10-24T16:21:45.830Z,16.87
2022-10-24T16:24:14.087Z,16.88
2022-10-24T16:26:41.956Z,16.88
2022-10-24T16:29:10.060Z,16.90
2022-10-24T16:31:37.897Z,16.89
2022-10-24T16:34:08.206Z,16.89
2022-10-24T16:36:36.308Z,16.92
2022-10-24T16:39:04.113Z,16.94
2022-10-24T16:41:31.895Z,16.95
2022-10-24T16:43:59.872Z,16.97
2022-10-24T16:46:28.264Z,16.97
2022-10-24T16:48:56.208Z,17.01
2022-10-24T16:51:24.496Z,17.01
2022-10-24T16:53:52.316Z,16.98
2022-10-24T16:56:20.206Z,16.94
2022-10-24T16:58:48.432Z,16.93
2022-10-24T17:01:16.452Z,16.92
2022-10-24T17:03:45.129Z,16.91
2022-10-24T17:06:13.009Z,16.90
2022-10-24T17:08:40.808Z,16.88
2022-10-24T17:11:43.273Z,16.85
2022-10-24T17:13:59.838Z,16.83
2022-10-24T17:16:27.667Z,16.80
2022-10-24T17:19:12.201Z,16.81
2022-10-24T17:21:43.306Z,16.79
2022-10-24T17:24:11.231Z,16.77
2022-10-24T17:26:39.065Z,16.73
2022-10-24T17:29:08.603Z,16.72
2022-10-24T17:31:36.780Z,16.69
2022-10-24T17:34:05.113Z,16.65
2022-10-24T17:36:33.034Z,16.60
2022-10-24T17:39:00.864Z,16.56
2022-10-24T17:41:28.614Z,16.49
2022-10-24T17:43:56.585Z,16.44
2022-10-24T17:46:24.761Z,16.40
2022-10-24T17:48:53.823Z,16.41
2022-10-24T17:51:21.687Z,16.42
2022-10-24T17:53:49.840Z,16.41
2022-10-24T17:56:19.567Z,16.34
2022-10-24T17:58:51.838Z,16.26
2022-10-24T18:01:20.864Z,16.27
2022-10-24T18:03:48.882Z,16.27
2022-10-24T18:06:16.756Z,16.26
2022-10-24T18:08:44.581Z,16.25
2022-10-24T18:11:13.420Z,16.26
2022-10-24T18:13:41.624Z,16.29
2022-10-24T18:16:09.961Z,16.31
2022-10-24T18:18:40.111Z,16.31
2022-10-24T18:21:08.148Z,16.31
2022-10-24T18:23:36.724Z,16.30
2022-10-24T18:26:04.502Z,16.06
2022-10-24T18:28:32.468Z,15.66
2022-10-24T18:31:00.287Z,15.23
2022-10-24T18:33:28.091Z,14.82
2022-10-24T18:35:56.386Z,14.46
2022-10-24T18:38:24.651Z,14.14
2022-10-24T18:40:52.498Z,13.90
2022-10-24T18:43:20.389Z,13.73
2022-10-24T18:45:50.221Z,13.59
2022-10-24T18:48:18.207Z,13.47
2022-10-24T18:50:46.078Z,13.36
2022-10-24T18:53:13.894Z,13.27
2022-10-24T18:55:41.689Z,13.21
2022-10-24T18:58:09.655Z,13.15
2022-10-24T19:00:38.358Z,13.11
2022-10-24T19:03:06.404Z,13.09
2022-10-24T19:05:34.267Z,13.07
2022-10-24T19:08:02.178Z,13.06
2022-10-24T19:10:30.020Z,13.08
2022-10-24T19:12:59.275Z,13.08
2022-10-24T19:15:28.127Z,13.12
2022-10-24T19:17:55.938Z,13.13
2022-10-24T19:20:23.858Z,13.15
2022-10-24T19:22:52.004Z,13.17
2022-10-24T19:25:20.494Z,13.15
2022-10-24T19:27:49.594Z,13.12
2022-10-24T19:30:17.460Z,13.09
2022-10-24T19:32:45.641Z,13.06
2022-10-24T19:35:13.664Z,12.82
2022-10-24T19:37:42.581Z,12.64
2022-10-24T19:40:10.418Z,12.62
2022-10-24T19:42:38.308Z,12.70
2022-10-24T19:45:07.688Z,12.81
2022-10-24T19:47:35.511Z,12.88
2022-10-24T19:50:04.276Z,12.93
2022-10-24T19:52:31.986Z,12.92
2022-10-24T19:54:59.790Z,12.90
2022-10-24T19:57:27.600Z,12.86
2022-10-24T19:59:55.420Z,12.86
2022-10-24T20:02:24.288Z,12.85
2022-10-24T20:04:52.130Z,12.84
2022-10-24T20:07:20.582Z,12.83
2022-10-24T20:09:48.385Z,12.80
2022-10-24T20:12:16.344Z,12.76
2022-10-24T20:14:44.573Z,12.74
2022-10-24T20:17:12.465Z,12.72
2022-10-24T20:19:40.322Z,12.72
2022-10-24T20:22:08.139Z,12.73
2022-10-24T20:24:35.928Z,12.72
2022-10-24T20:29:32.694Z,12.72
2022-10-24T20:32:00.564Z,12.72
2022-10-24T20:34:28.492Z,12.72
2022-10-24T20:36:56.391Z,12.76
2022-10-24T20:39:24.386Z,12.77
2022-10-24T20:41:54.148Z,12.81
2022-10-24T20:44:22.167Z,12.83
2022-10-24T20:46:50.135Z,12.86
2022-10-24T20:49:18.059Z,12.89
2022-10-24T20:51:49.678Z,12.94
2022-10-24T20:54:17.440Z,13.01
2022-10-24T20:56:45.273Z,13.12
2022-10-24T20:59:12.997Z,13.26
2022-10-24T21:01:40.890Z,13.34
2022-10-24T21:04:09.152Z,13.41
2022-10-24T21:06:37.280Z,13.48
2022-10-24T21:09:05.244Z,13.54
2022-10-24T21:11:33.103Z,13.62
2022-10-24T21:14:01.192Z,13.71
2022-10-24T21:16:29.904Z,13.79
2022-10-24T21:18:57.743Z,13.87
2022-10-24T21:21:25.421Z,13.90
2022-10-24T21:23:53.199Z,13.93
2022-10-24T21:26:21.050Z,13.94
2022-10-24T21:28:49.365Z,13.94
2022-10-24T21:31:16.984Z,13.93
2022-10-24T21:33:44.718Z,13.91
2022-10-24T21:36:12.804Z,13.90
2022-10-24T21:38:40.431Z,13.86
2022-10-24T21:41:08.636Z,13.83
2022-10-24T21:43:36.397Z,13.83
2022-10-24T21:46:04.027Z,13.83
2022-10-24T21:48:32.035Z,13.84
2022-10-24T21:50:59.842Z,13.86
2022-10-24T21:53:27.871Z,13.87
2022-10-24T21:55:55.683Z,13.87
2022-10-24T21:58:23.384Z,13.87
2022-10-24T22:00:51.164Z,13.88
2022-10-24T22:03:19.037Z,13.88
2022-10-24T22:05:47.206Z,13.88
2022-10-24T22:08:14.921Z,13.89
2022-10-24T22:10:42.622Z,13.87
2022-10-24T22:13:10.441Z,13.87
2022-10-24T22:15:38.175Z,13.86
2022-10-24T22:18:07.812Z,13.87
2022-10-24T22:20:35.473Z,13.90
2022-10-24T22:23:03.045Z,13.92
2022-10-24T22:25:30.777Z,13.94
2022-10-24T22:27:58.443Z,13.94
2022-10-24T22:30:26.786Z,13.93
2022-10-24T22:32:54.535Z,13.92
2022-10-24T22:35:22.155Z,13.90
2022-10-24T22:37:49.796Z,13.90
2022-10-24T22:40:18.035Z,13.90
2022-10-24T22:42:46.373Z,13.91
2022-10-24T22:45:14.326Z,13.92
2022-10-24T22:47:42.004Z,13.92
2022-10-24T22:50:09.646Z,13.92
2022-10-24T22:52:37.324Z,13.91
2022-10-24T22:55:06.460Z,13.91
2022-10-24T23:00:08.329Z,13.95
2022-10-24T23:02:38.147Z,13.98
2022-10-24T23:05:06.597Z,13.97
2022-10-24T23:07:34.210Z,13.99
2022-10-24T23:10:01.796Z,14.01
2022-10-24T23:12:29.388Z,14.04
2022-10-24T23:14:56.987Z,14.06
2022-10-24T23:17:25.064Z,14.08
2022-10-24T23:19:52.657Z,14.09
2022-10-24T23:22:20.307Z,14.10
2022-10-24T23:24:48.396Z,14.12
2022-10-24T23:27:15.959Z,14.15
2022-10-24T23:29:44.081Z,14.16
2022-10-24T23:32:11.663Z,14.16
2022-10-24T23:34:39.221Z,14.17
2022-10-24T23:37:06.827Z,14.16
2022-10-24T23:39:34.387Z,14.19
2022-10-24T23:42:02.284Z,14.22
2022-10-24T23:44:29.889Z,14.26
2022-10-24T23:46:57.923Z,14.27
2022-10-24T23:49:25.504Z,14.30
2022-10-24T23:51:53.188Z,14.32
2022-10-24T23:54:21.093Z,14.35
2022-10-24T23:56:48.643Z,14.39
2022-10-24T23:59:16.237Z,14.43
